Latest Coastal Weather Observations for Swanbourne

IDW60701

Issued at 5:15 pm WST Friday 25 April 2014 (issued every 10 minutes, with the page automatically refreshed every 10 minutes)

About coastal observations | Map of coastal stations | Coastal observations for WA | Marine services | Other Formats
Station Details ID: 009215 Name: SWANBOURNE Lat: -31.96 Lon: 115.76 Height: 40.96 m
Data from the previous 72 hours. | See also: Recent months at Swanbourne
Date/Time
WST
Temp

°C
Wind Pressure Rain
since 9am
mm
Weather Cloud Vis
km
Sea
Height
m
Swell
Dir
 
Speed
knots
Gust
knots
hPa Trend Height
m
Period
s
Dir
25/05:00pm 20.9 SW 6 10 - - 0.0 - - - - - - -
25/04:30pm 21.3 SW 6 9 - - 0.0 - - - - - - -
25/04:00pm 22.6 SW 8 10 - - 0.0 - - - - - - -
25/03:30pm 23.6 SSW 6 10 - - 0.0 - - - - - - -
25/03:00pm 22.7 SW 7 10 - - 0.0 - - - - - - -
25/02:30pm 22.1 WSW 7 10 - - 0.0 - - - - - - -
25/02:00pm 22.8 WSW 6 9 - - 0.0 - - - - - - -
25/01:30pm 22.5 WSW 6 8 - - 0.0 - - - - - - -
25/01:00pm 22.0 WSW 7 9 - - 0.0 - - - - - - -
25/12:30pm 21.3 WSW 5 7 - - 0.0 - - - - - - -
25/12:00pm 21.9 WSW 6 8 - - 0.0 - - - - - - -
25/11:30am 21.7 W 4 7 - - 0.0 - - - - - - -
25/11:00am 20.6 WSW 4 7 - - 0.0 - - - - - - -
25/10:30am 20.1 WSW 1 3 - - 0.0 - - - - - - -
25/10:00am 19.7 WSW 3 5 - - 0.0 - - - - - - -
25/09:30am 19.1 SSW 2 4 - - 0.0 - - - - - - -
25/09:00am 19.0 SSW 4 6 - - 0.0 - - - - - - -
25/08:30am 18.3 SSE 1 3 - - 0.0 - - - - - - -
25/08:00am 16.8 ESE 2 3 - - 0.0 - - - - - - -
25/07:30am 16.2 SSE 4 6 - - 0.0 - - - - - - -
25/07:00am 16.4 SE 3 4 - - 0.0 - - - - - - -
25/06:30am 16.6 SSE 5 7 - - 0.0 - - - - - - -
25/06:00am 17.2 E 3 4 - - 0.0 - - - - - - -
25/05:30am 17.5 E 3 4 - - 0.0 - - - - - - -
25/05:00am 17.5 ESE 2 4 - - 0.0 - - - - - - -
25/04:30am 17.6 CALM 0 0 - - 0.0 - - - - - - -
25/04:00am 17.4 CALM 0 0 - - 0.0 - - - - - - -
25/03:30am 17.5 CALM 0 0 - - 0.0 - - - - - - -
25/03:00am 17.4 CALM 0 0 - - 0.0 - - - - - - -
25/02:30am 17.5 ENE 3 4 - - 0.0 - - - - - - -
25/02:00am 17.9 CALM 0 0 - - 0.0 - - - - - - -
25/01:30am 18.1 CALM 0 0 - - 0.0 - - - - - - -
25/01:00am 18.6 CALM 0 2 - - 0.0 - - - - - - -
25/12:30am 18.6 N 3 4 - - 0.0 - - - - - - -
25/12:00am 18.7 N 3 4 - - 0.0 - - - - - - -
 
Date/Time
WST
Temp

°C
Wind Pressure Rain
since 9am
mm
Weather Cloud Vis
km
Sea
Height
m
Swell
Dir
 
Speed
knots
Gust
knots
hPa Trend Height
m
Period
s
Dir
24/11:30pm 18.7 N 4 5 - - 0.0 - - - - - - -
24/11:00pm 18.7 N 4 6 - - 0.0 - - - - - - -
24/10:30pm 18.6 N 4 5 - - 0.0 - - - - - - -
24/10:00pm 18.7 N 3 5 - - 0.0 - - - - - - -
24/09:30pm 18.3 NNE 3 4 - - 0.0 - - - - - - -
24/09:00pm 18.5 NNE 1 2 - - 0.0 - - - - - - -
24/08:30pm 18.6 SSE 3 5 - - 0.0 - - - - - - -
24/08:00pm 19.1 SSW 4 6 - - 0.0 - - - - - - -
24/07:30pm 19.7 SW 5 11 - - 0.0 - - - - - - -
24/07:00pm 20.1 SW 5 7 - - 0.0 - - - - - - -
24/06:30pm 19.9 WSW 4 6 - - 0.0 - - - - - - -
24/06:00pm 20.1 SW 3 4 - - 0.0 - - - - - - -
24/05:30pm 20.5 SW 3 6 - - 0.0 - - - - - - -
24/05:00pm 20.7 S 5 8 - - 0.0 - - - - - - -
24/04:30pm 21.3 WSW 3 5 - - 0.0 - - - - - - -
24/04:00pm 21.4 SSW 5 7 - - 0.0 - - - - - - -
24/03:30pm 21.2 WSW 4 6 - - 0.0 - - - - - - -
24/03:00pm 21.6 SW 2 4 - - 0.0 - - - - - - -
24/02:30pm 21.5 SSW 5 7 - - 0.0 - - - - - - -
24/02:00pm 21.2 SSW 6 8 - - 0.0 - - - - - - -
24/01:30pm 21.4 SSW 6 8 - - 0.0 - - - - - - -
24/01:00pm 21.2 SW 7 10 - - 0.0 - - - - - - -
24/12:30pm 21.9 SW 9 11 - - 0.0 - - - - - - -
24/12:00pm 23.7 S 2 7 - - 0.0 - - - - - - -
24/11:30am 22.7 ESE 3 6 - - 0.0 - - - - - - -
24/11:00am 23.0 ESE 4 6 - - 0.0 - - - - - - -
24/10:30am 21.9 E 3 5 - - 0.0 - - - - - - -
24/10:00am 21.8 E 4 8 - - 0.0 - - - - - - -
24/09:30am 21.2 SE 2 4 - - 0.0 - - - - - - -
24/09:00am 20.5 ESE 2 4 - - 0.0 - - - - - - -
24/08:30am 19.2 SE 3 6 - - 0.0 - - - - - - -
24/08:00am 16.8 SSE 2 3 - - 0.0 - - - - - - -
24/07:30am 15.9 S 2 3 - - 0.0 - - - - - - -
24/07:00am 16.4 ESE 4 6 - - 0.0 - - - - - - -
24/06:30am 17.2 E 10 16 - - 0.0 - - - - - - -
24/06:00am 17.4 E 11 18 - - 0.0 - - - - - - -
24/05:30am 17.7 E 11 17 - - 0.0 - - - - - - -
24/05:00am 17.6 E 11 16 - - 0.0 - - - - - - -
24/04:30am 16.7 E 9 13 - - 0.0 - - - - - - -
24/04:00am 17.0 E 9 11 - - 0.0 - - - - - - -
24/03:30am 17.3 E 9 12 - - 0.0 - - - - - - -
24/03:00am 17.7 E 8 11 - - 0.0 - - - - - - -
24/02:30am 18.0 E 9 14 - - 0.0 - - - - - - -
24/02:00am 17.8 E 8 10 - - 0.0 - - - - - - -
24/01:30am 18.0 E 8 11 - - 0.0 - - - - - - -
24/01:00am 18.4 E 8 11 - - 0.0 - - - - - - -
24/12:30am 18.7 E 7 10 - - 0.0 - - - - - - -
24/12:00am 18.7 ESE 8 10 - - 0.0 - - - - - - -
 
Date/Time
WST
Temp

°C
Wind Pressure Rain
since 9am
mm
Weather Cloud Vis
km
Sea
Height
m
Swell
Dir
 
Speed
knots
Gust
knots
hPa Trend Height
m
Period
s
Dir
23/11:30pm 18.7 ESE 8 10 - - 0.0 - - - - - - -
23/11:00pm 18.7 ESE 7 11 - - 0.0 - - - - - - -
23/10:30pm 18.5 ESE 7 9 - - 0.0 - - - - - - -
23/10:00pm 18.5 ESE 8 9 - - 0.0 - - - - - - -
23/09:30pm 17.9 ESE 5 7 - - 0.0 - - - - - - -
23/09:00pm 17.6 SE 5 6 - - 0.0 - - - - - - -
23/08:30pm 17.9 ESE 4 5 - - 0.0 - - - - - - -
23/08:00pm 18.0 SE 5 6 - - 0.0 - - - - - - -
23/07:30pm 18.0 S 3 4 - - 0.0 - - - - - - -
23/07:00pm 18.9 S 6 8 - - 0.0 - - - - - - -
23/06:30pm 19.2 S 6 9 - - 0.0 - - - - - - -
23/06:00pm 19.6 S 7 10 - - 0.0 - - - - - - -
23/05:30pm 20.0 S 9 13 - - 0.0 - - - - - - -
23/05:00pm 20.6 SSW 11 16 - - 0.0 - - - - - - -
23/04:30pm 21.6 SSW 11 17 - - 0.0 - - - - - - -
23/04:00pm 21.8 SSW 12 17 - - 0.0 - - - - - - -
23/03:30pm 22.3 SSW 12 17 - - 0.0 - - - - - - -
23/03:00pm 21.9 SSW 11 17 - - 0.0 - - - - - - -
23/02:30pm 23.0 SSW 12 17 - - 0.0 - - - - - - -
23/02:00pm 22.8 SSW 13 17 - - 0.0 - - - - - - -
23/01:30pm 23.3 SSW 8 15 - - 0.0 - - - - - - -
23/01:00pm 23.5 SSW 11 16 - - 0.0 - - - - - - -
23/12:30pm 22.2 SSW 11 16 - - 0.0 - - - - - - -
23/12:00pm 23.1 SSW 7 12 - - 0.0 - - - - - - -
23/11:30am 23.4 SSE 6 11 - - 0.0 - - - - - - -
23/11:00am 22.2 SE 7 12 - - 0.0 - - - - - - -
23/10:30am 22.0 SE 7 12 - - 0.0 - - - - - - -
23/10:00am 20.8 SE 8 13 - - 0.0 - - - - - - -
23/09:30am 19.0 ESE 7 11 - - 0.0 - - - - - - -
23/09:00am 17.4 ESE 7 12 - - 0.0 - - - - - - -
23/08:30am 16.4 ESE 6 9 - - 0.0 - - - - - - -
23/08:00am 14.5 ESE 6 9 - - 0.0 - - - - - - -
23/07:30am 12.4 ESE 7 8 - - 0.0 - - - - - - -
23/07:00am 11.8 ESE 6 7 - - 0.0 - - - - - - -
23/06:30am 11.9 ESE 7 9 - - 0.0 - - - - - - -
23/06:00am 11.7 ESE 6 8 - - 0.0 - - - - - - -
23/05:30am 12.1 ESE 6 8 - - 0.0 - - - - - - -
23/05:00am 12.6 ESE 7 9 - - 0.0 - - - - - - -
23/04:30am 12.8 SE 6 9 - - 0.0 - - - - - - -
23/04:00am 12.8 SE 6 8 - - 0.0 - - - - - - -
23/03:30am 13.1 SE 6 8 - - 0.0 - - - - - - -
23/03:00am 13.8 SE 7 10 - - 0.0 - - - - - - -
23/02:30am 14.1 SE 6 9 - - 0.0 - - - - - - -
23/02:00am 14.8 SSE 6 11 - - 0.0 - - - - - - -
23/01:30am 15.5 SSE 8 17 - - 0.0 - - - - - - -
23/01:00am 15.5 S 9 13 - - 0.0 - - - - - - -
23/12:30am 15.4 SSE 8 13 - - 0.0 - - - - - - -
23/12:00am 15.5 SSE 7 12 - - 0.0 - - - - - - -
 
Date/Time
WST
Temp

°C
Wind Pressure Rain
since 9am
mm
Weather Cloud Vis
km
Sea
Height
m
Swell
Dir
 
Speed
knots
Gust
knots
hPa Trend Height
m
Period
s
Dir
22/11:30pm 15.7 SSE 8 14 - - 0.0 - - - - - - -
22/11:00pm 15.6 SSE 6 10 - - 0.0 - - - - - - -
22/10:30pm 15.8 SSE 7 10 - - 0.0 - - - - - - -
22/10:00pm 16.0 SSE 7 10 - - 0.0 - - - - - - -
22/09:30pm 16.1 SSE 7 10 - - 0.0 - - - - - - -
22/09:00pm 16.1 SSE 5 8 - - 0.0 - - - - - - -
22/08:30pm 16.4 SSE 6 8 - - 0.0 - - - - - - -
22/08:00pm 17.0 S 6 9 - - 0.0 - - - - - - -
22/07:30pm 17.4 S 7 12 - - 0.0 - - - - - - -
22/07:00pm 17.5 S 8 13 - - 0.0 - - - - - - -
22/06:30pm 17.4 S 7 11 - - 0.0 - - - - - - -
22/06:00pm 18.1 S 9 13 - - 0.0 - - - - - - -
22/05:30pm 18.9 S 9 13 - - 0.0 - - - - - - -

Other Formats:

Comma delimited format used in spreadsheet applications
http://www.bom.gov.au/fwo/IDW60701/IDW60701.94614.axf

JavaScript Object Notation format (JSON) in row-major order
http://www.bom.gov.au/fwo/IDW60701/IDW60701.94614.json